Charlotte Douglas International Airport
KCLT : now visible

Airfield :











YOU CAN JOIN US ON...

 
LOGIN :

Register | Disclaimer

   EN    FR    IT 

 









Legend :    VFR   Marginal VFR   IFR   Intensive IFR   Very Intensive IFR
Visi :
Ceiling :
>= 8 km
>= 3000ft
5 to 8 km
1000 to 3000 ft
1500m to 5 km
500 to 1000 ft
800 to 1500m
200 to 500 ft
< 800m
< 200 ft
Symbols :   Thunderstorms  Fog  Heavy snow  Heavy precipitations  Wind > 20 kt






- Airport Elevation : 748 ft
- IATA code : CLT


KCLT - Charlotte Douglas International

CURRENT METAR :
  • 231252Z 19003KT 10SM SCT250 02/M03 A3030 RMK AO2 SLP263 T00171033

EXPIRED METARs :
  • 231152Z 15003KT 10SM FEW250 01/M04 A3028 RMK AO2 SLP257 T00061039 10028 21006 55002
  • 231052Z 13004KT 10SM FEW250 M01/M04 A3028 RMK AO2 SLP257 T10061044

TAF KCLT
Valid from the 23 at 12:00 until the 24 at 18:00 UTC


231134Z 2312/2418 19005KT P6SM FEW250
FM240000 19003KT P6SM SCT200
FM240800 21003KT P6SM OVC090
PROB30 2410/2415 4SM -RA BR OVC025
FM241500 19004KT P6SM -RA OVC040
FM241700 18005KT 3SM -RA BR OVC020



MET'MAP, your aeronautical weather chart ! - Copyright ORBIFLY December 2007 - Disclaimer

ORBIFLY MET'MAP TEAM :

Programming & Development : Alexandra Zaïnal
Concept & original design : Baudouin d'Aumeries
Assistance for programming : Marc-Olivier Méhu
Technical & hardware support : Manuel Goepfert

Contact : metmap@orbifly.com




SOURCES & CREDITS :

   NOAA       Earth
Advisory